RKSI/ICN METAR and TAF weather

Enter ICAO airport designator
Station Type Date Time Source
RKSI METAR 2022/08/13 12:30 UTC NOAA

RKSI 131230Z 22003KT 9999 -RA BKN030 OVC070 26/23 Q1006 NOSIG


Station Type Date Time Source
RKSI Decoded METAR 2022/08/13 12:30 UTC NOAA

Incheon International Airport, Korea, South (RKSI) 37-28N 126-27E
Aug 13, 2022 - 08:30 AM EDT / 2022.08.13 1230 UTC
Wind: from the SW (220 degrees) at 3 MPH (3 KT):0
Visibility: greater than 7 mile(s):0
Sky conditions: overcast
Weather: light rain
Temperature: 78 F (26 C)
Dew Point: 73 F (23 C)
Relative Humidity: 83%
Pressure (altimeter): 29.71 in. Hg (1006 hPa)
ob: RKSI 131230Z 22003KT 9999 -RA BKN030 OVC070 26/23 Q1006 NOSIG
cycle: 12

Station Type Date Time Source
RKSI TAF 2022/08/13 12:06 UTC NOAA

TAF RKSI 131100Z 1312/1418 21010KT 9999 FEW010 SCT025 TN25/1320Z TX29/1405Z
TEMPO 1312/1314 6000 -RA FEW005 BKN025 OVC080
BECMG 1316/1318 12006KT FEW005 BKN025
BECMG 1402/1404 27008KT FEW010 SCT030
BECMG 1408/1410 19008KT 6000 -RA FEW010 BKN030 OVC080
BECMG 1414/1416 18015G25KT NSW

Example: see airport list